Time;durP1;ratioP1;P1;durP2;ratioP2;P2;SDS_P1;SDS_P2;PMS_P1;PMS_P2;Temp;Humidity;BMP_temperature;BMP_pressure;BME280_temperature;BME280_humidity;BME280_pressure;Samples;Min_cycle;Max_cycle;Signal;HPM_P1;HPM_P2
2022/02/22 00:00:22;;;;;;;0.30;0.30;;;4.60;99.80;;;;;;5035361;28;20250;-68
2022/02/22 00:02:48;;;;;;;0.40;0.40;;;4.20;99.50;;;;;;5035150;28;20199;-68
2022/02/22 00:05:14;;;;;;;0.30;0.30;;;4.30;99.80;;;;;;5035332;28;20206;-68
2022/02/22 00:07:40;;;;;;;0.30;0.30;;;4.40;99.50;;;;;;5035228;28;20500;-68
2022/02/22 00:10:08;;;;;;;0.30;0.30;;;4.70;99.20;;;;;;5035053;28;20668;-68
2022/02/22 00:12:34;;;;;;;0.30;0.30;;;4.70;99.30;;;;;;5035165;28;20540;-68
2022/02/22 00:15:00;;;;;;;0.30;0.30;;;4.80;99.50;;;;;;5035095;28;20195;-68
2022/02/22 00:17:27;;;;;;;0.40;0.40;;;4.70;99.10;;;;;;5035076;28;20654;-68
2022/02/22 00:19:53;;;;;;;0.40;0.40;;;4.80;98.80;;;;;;5034865;28;20274;-68
2022/02/22 00:22:19;;;;;;;1.33;1.03;;;4.60;99.10;;;;;;5034909;28;20609;-68
2022/02/22 00:24:44;;;;;;;0.37;0.37;;;4.70;99.50;;;;;;5034570;28;20425;-68
2022/02/22 00:27:11;;;;;;;0.40;0.40;;;4.80;99.70;;;;;;5034052;28;20187;-68
2022/02/22 00:29:37;;;;;;;0.30;0.30;;;4.90;99.60;;;;;;5034733;28;20198;-68
2022/02/22 00:32:03;;;;;;;0.30;0.30;;;5.00;99.60;;;;;;5034972;28;20542;-68
2022/02/22 00:34:29;;;;;;;0.30;0.30;;;5.10;99.30;;;;;;5034909;28;20430;-68
2022/02/22 00:36:54;;;;;;;0.40;0.40;;;5.00;99.00;;;;;;5034680;28;20228;-68
2022/02/22 00:39:20;;;;;;;0.40;0.40;;;5.10;99.20;;;;;;5034706;28;20179;-68
2022/02/22 00:41:46;;;;;;;0.30;0.30;;;5.10;99.00;;;;;;5034866;28;20171;-68
2022/02/22 00:44:11;;;;;;;0.40;0.40;;;5.00;99.10;;;;;;5034708;28;20437;-68
2022/02/22 00:46:37;;;;;;;0.30;0.30;;;5.00;99.00;;;;;;5034539;28;20764;-68
2022/02/22 00:49:03;;;;;;;0.30;0.30;;;5.00;99.20;;;;;;5034273;28;20212;-68
2022/02/22 00:51:28;;;;;;;0.30;0.30;;;5.00;99.30;;;;;;5034619;28;20242;-68
2022/02/22 00:53:54;;;;;;;0.30;0.30;;;5.10;99.50;;;;;;5034406;28;20171;-68
2022/02/22 00:56:20;;;;;;;0.30;0.30;;;5.10;99.30;;;;;;5034291;28;20191;-70
2022/02/22 00:58:46;;;;;;;0.30;0.30;;;5.10;99.30;;;;;;5034194;28;20174;-68
2022/02/22 01:01:15;;;;;;;0.38;0.38;;;5.00;99.20;;;;;;5034501;28;20177;-68
2022/02/22 01:03:41;;;;;;;0.30;0.30;;;5.00;99.30;;;;;;5034143;28;20175;-68
2022/02/22 01:06:06;;;;;;;0.30;0.30;;;5.00;99.50;;;;;;5034556;28;20201;-68
2022/02/22 01:08:32;;;;;;;0.30;0.30;;;5.10;99.50;;;;;;5034180;28;20202;-68
2022/02/22 01:10:58;;;;;;;0.30;0.30;;;4.90;99.50;;;;;;5016366;28;20210;-68
2022/02/22 01:13:24;;;;;;;0.30;0.30;;;4.90;99.70;;;;;;5034074;28;20167;-68
2022/02/22 01:15:50;;;;;;;0.40;0.40;;;4.60;99.60;;;;;;5034004;28;20939;-68
2022/02/22 01:18:16;;;;;;;0.30;0.30;;;4.60;99.90;;;;;;5033950;28;20402;-68
2022/02/22 01:20:42;;;;;;;0.30;0.30;;;4.40;99.90;;;;;;5031610;28;20192;-68
2022/02/22 01:23:08;;;;;;;0.40;0.40;;;4.30;99.90;;;;;;5033921;28;20174;-68
2022/02/22 01:25:34;;;;;;;0.30;0.30;;;4.40;99.90;;;;;;5015943;28;20281;-68
2022/02/22 01:27:59;;;;;;;0.30;0.30;;;4.70;99.90;;;;;;5034050;28;20265;-68
2022/02/22 01:30:25;;;;;;;0.30;0.30;;;4.80;99.90;;;;;;5033704;28;20195;-68
2022/02/22 01:32:51;;;;;;;0.30;0.30;;;4.80;99.90;;;;;;5033890;28;20170;-68
2022/02/22 01:35:17;;;;;;;0.30;0.30;;;4.80;99.90;;;;;;5033863;28;20187;-68
2022/02/22 01:37:42;;;;;;;0.30;0.30;;;4.90;99.90;;;;;;5033461;28;20289;-68
2022/02/22 01:40:09;;;;;;;0.30;0.30;;;5.00;99.90;;;;;;5033553;28;20409;-68
2022/02/22 01:42:35;;;;;;;0.30;0.30;;;5.10;99.90;;;;;;5033630;28;20186;-68
2022/02/22 01:45:01;;;;;;;0.30;0.30;;;5.00;99.70;;;;;;5033546;28;20191;-68
2022/02/22 01:47:26;;;;;;;0.30;0.30;;;4.90;99.60;;;;;;5033546;28;20452;-68
2022/02/22 01:49:52;;;;;;;0.40;0.40;;;4.80;99.90;;;;;;5033428;28;20556;-68
2022/02/22 01:52:18;;;;;;;0.40;0.40;;;4.80;99.90;;;;;;5033732;28;20236;-68
2022/02/22 01:54:45;;;;;;;0.30;0.30;;;4.80;99.90;;;;;;5033424;28;20660;-68
2022/02/22 01:57:12;;;;;;;0.30;0.30;;;4.80;99.90;;;;;;5033540;28;20524;-68
2022/02/22 01:59:38;;;;;;;0.30;0.30;;;4.90;99.90;;;;;;5033270;28;20177;-68
2022/02/22 02:02:04;;;;;;;0.30;0.30;;;4.90;99.90;;;;;;5033548;28;20268;-68
2022/02/22 02:04:29;;;;;;;0.30;0.30;;;4.90;99.90;;;;;;5033300;28;20279;-68
2022/02/22 02:06:58;;;;;;;0.37;0.37;;;4.90;99.90;;;;;;5033580;28;20174;-68
2022/02/22 02:09:25;;;;;;;0.35;0.35;;;5.00;99.90;;;;;;5033170;28;20220;-68
2022/02/22 02:11:58;;;;;;;0.30;0.30;;;4.70;99.90;;;;;;5033388;28;20194;-68
2022/02/22 02:14:25;;;;;;;0.40;0.40;;;4.60;99.90;;;;;;5033413;28;20209;-68
2022/02/22 02:16:52;;;;;;;0.30;0.30;;;4.60;99.90;;;;;;5033221;28;20174;-68
2022/02/22 02:19:19;;;;;;;0.40;0.40;;;4.80;99.90;;;;;;5033084;28;20697;-68
2022/02/22 02:21:45;;;;;;;0.30;0.30;;;4.80;99.90;;;;;;5033466;28;20522;-68
2022/02/22 02:24:16;;;;;;;0.30;0.30;;;4.80;99.90;;;;;;5033308;28;20171;-68
2022/02/22 02:26:43;;;;;;;0.30;0.30;;;4.90;99.90;;;;;;5032966;28;20210;-68
2022/02/22 02:29:14;;;;;;;0.38;0.38;;;4.60;99.90;;;;;;5032973;28;20178;-68
2022/02/22 02:31:42;;;;;;;0.30;0.30;;;4.40;99.90;;;;;;5033187;28;20177;-68
2022/02/22 02:34:09;;;;;;;0.32;0.32;;;4.50;99.90;;;;;;5033130;28;20262;-68
2022/02/22 02:36:36;;;;;;;0.30;0.30;;;4.60;99.90;;;;;;5033042;28;20774;-68
2022/02/22 02:39:04;;;;;;;0.40;0.40;;;4.70;99.90;;;;;;5033143;28;20167;-68
2022/02/22 02:41:30;;;;;;;0.38;0.38;;;4.70;99.90;;;;;;5015530;28;20578;-68
2022/02/22 02:44:10;;;;;;;0.40;0.40;;;4.70;99.90;;;;;;5033179;28;20174;-68
2022/02/22 02:46:36;;;;;;;0.35;0.35;;;4.60;99.90;;;;;;5033022;28;20183;-68
2022/02/22 02:49:03;;;;;;;0.40;0.40;;;4.70;99.90;;;;;;5033746;28;20178;-68
2022/02/22 02:51:28;;;;;;;0.30;0.30;;;4.70;99.90;;;;;;5036746;28;20182;-68
2022/02/22 02:53:55;;;;;;;0.30;0.30;;;4.80;99.90;;;;;;5019084;28;20176;-68
2022/02/22 02:56:24;;;;;;;0.30;0.30;;;4.90;99.90;;;;;;5036441;28;20553;-68
2022/02/22 02:58:52;;;;;;;0.40;0.40;;;4.60;99.90;;;;;;5036584;28;20581;-68
2022/02/22 03:01:19;;;;;;;0.30;0.30;;;4.60;99.90;;;;;;5036588;28;20651;-68
2022/02/22 03:03:44;;;;;;;0.30;0.30;;;4.80;99.90;;;;;;5036444;28;20174;-68
2022/02/22 03:06:10;;;;;;;0.30;0.30;;;4.90;99.90;;;;;;5036363;28;20198;-68
2022/02/22 03:08:36;;;;;;;0.30;0.30;;;4.90;99.90;;;;;;5036228;28;20261;-68
2022/02/22 03:11:01;;;;;;;0.30;0.30;;;5.00;99.90;;;;;;5036379;28;20193;-68
2022/02/22 03:13:27;;;;;;;0.30;0.30;;;5.00;99.90;;;;;;5036296;28;20202;-68
2022/02/22 03:15:53;;;;;;;0.33;0.33;;;5.00;99.90;;;;;;5036238;28;20191;-68
2022/02/22 03:18:18;;;;;;;0.30;0.30;;;5.00;99.90;;;;;;5036193;28;20228;-68
2022/02/22 03:20:44;;;;;;;0.30;0.30;;;5.10;99.90;;;;;;5036320;28;20572;-68
2022/02/22 03:23:10;;;;;;;0.30;0.30;;;4.90;99.90;;;;;;5036328;28;20190;-68
2022/02/22 03:25:35;;;;;;;0.30;0.30;;;4.60;99.90;;;;;;5018343;28;20202;-68
2022/02/22 03:28:06;;;;;;;0.30;0.30;;;4.50;99.90;;;;;;5036058;28;20183;-68
2022/02/22 03:30:32;;;;;;;0.30;0.30;;;4.40;99.90;;;;;;5035724;28;20206;-68
2022/02/22 03:32:58;;;;;;;0.30;0.30;;;4.60;99.90;;;;;;5035837;28;20177;-68
2022/02/22 03:35:24;;;;;;;0.30;0.30;;;4.70;99.90;;;;;;5035825;28;20648;-68
2022/02/22 03:37:50;;;;;;;0.30;0.30;;;4.90;99.90;;;;;;5036056;28;20179;-68
2022/02/22 03:40:17;;;;;;;0.30;0.30;;;4.80;99.90;;;;;;5035668;28;20178;-68
2022/02/22 03:42:43;;;;;;;0.40;0.40;;;4.70;99.90;;;;;;5036018;28;20545;-68
2022/02/22 03:45:11;;;;;;;0.40;0.40;;;4.80;99.90;;;;;;5035793;28;20679;-68
2022/02/22 03:47:40;;;;;;;0.30;0.30;;;4.90;99.90;;;;;;5035730;28;20193;-68
2022/02/22 03:50:09;;;;;;;0.30;0.30;;;5.10;99.90;;;;;;5035550;28;20264;-68
2022/02/22 03:52:35;;;;;;;0.30;0.30;;;5.00;99.90;;;;;;5034997;28;20580;-70
2022/02/22 03:55:02;;;;;;;0.40;0.40;;;4.90;99.90;;;;;;5035483;28;20604;-68
2022/02/22 03:57:28;;;;;;;0.30;0.30;;;5.00;99.90;;;;;;5035795;28;20227;-71
2022/02/22 03:59:53;;;;;;;0.30;0.30;;;5.00;99.90;;;;;;5035451;28;20166;-74
2022/02/22 04:02:19;;;;;;;0.30;0.30;;;5.00;99.90;;;;;;5035910;28;20175;-73
2022/02/22 04:04:44;;;;;;;0.40;0.40;;;4.80;99.90;;;;;;5035545;28;20190;-73
2022/02/22 04:07:10;;;;;;;0.40;0.40;;;4.90;99.90;;;;;;5035065;28;20175;-69
2022/02/22 04:09:36;;;;;;;0.30;0.30;;;4.90;99.90;;;;;;5035190;28;20282;-68
2022/02/22 04:12:02;;;;;;;0.30;0.30;;;5.00;99.90;;;;;;5035583;28;20170;-68
2022/02/22 04:14:28;;;;;;;0.38;0.38;;;5.00;99.90;;;;;;5017649;28;20508;-69
2022/02/22 04:16:54;;;;;;;0.33;0.33;;;5.10;99.90;;;;;;5035647;28;20171;-69
2022/02/22 04:19:20;;;;;;;0.30;0.30;;;5.10;99.90;;;;;;5035179;28;20217;-69
2022/02/22 04:21:45;;;;;;;0.33;0.33;;;5.20;99.90;;;;;;5035748;28;20483;-68
2022/02/22 04:24:11;;;;;;;0.37;0.37;;;5.20;99.90;;;;;;5035178;28;20402;-70
2022/02/22 04:26:37;;;;;;;0.40;0.40;;;5.20;99.90;;;;;;5034170;28;20202;-71
2022/02/22 04:29:03;;;;;;;0.33;0.33;;;5.10;99.90;;;;;;5033922;28;20455;-73
2022/02/22 04:31:38;;;;;;;0.40;0.40;;;5.20;99.90;;;;;;5034766;28;20206;-71
2022/02/22 04:34:04;;;;;;;0.57;0.57;;;5.10;99.70;;;;;;5035053;28;20170;-70
2022/02/22 04:36:30;;;;;;;0.30;0.30;;;5.20;99.90;;;;;;5034820;28;20270;-74
2022/02/22 04:38:56;;;;;;;0.40;0.40;;;4.90;99.90;;;;;;5034052;28;20602;-75
2022/02/22 04:41:23;;;;;;;0.30;0.30;;;4.70;99.90;;;;;;5035155;28;20508;-72
2022/02/22 04:43:49;;;;;;;0.30;0.30;;;4.80;99.90;;;;;;5035056;28;20202;-74
2022/02/22 04:46:14;;;;;;;0.30;0.30;;;5.00;99.90;;;;;;5034940;28;20461;-74
2022/02/22 04:48:40;;;;;;;0.30;0.30;;;5.20;99.90;;;;;;5035023;28;20401;-72
2022/02/22 04:51:06;;;;;;;0.40;0.40;;;5.30;99.90;;;;;;5034498;28;20202;-74
2022/02/22 04:53:31;;;;;;;0.40;0.40;;;5.30;99.80;;;;;;5034759;28;20576;-73
2022/02/22 04:55:57;;;;;;;0.30;0.30;;;5.40;99.40;;;;;;5034661;28;20267;-70
2022/02/22 04:58:22;;;;;;;0.37;0.37;;;5.50;99.50;;;;;;5034636;28;20170;-73
2022/02/22 05:00:48;;;;;;;0.40;0.40;;;5.50;99.20;;;;;;5034867;28;20540;-74
2022/02/22 05:03:14;;;;;;;0.40;0.40;;;5.60;99.20;;;;;;5034277;28;20254;-72
2022/02/22 05:05:40;;;;;;;0.40;0.40;;;5.50;98.90;;;;;;5034173;28;20190;-75
2022/02/22 05:08:05;;;;;;;0.30;0.30;;;5.60;98.80;;;;;;5034377;28;20408;-76
2022/02/22 05:10:31;;;;;;;0.30;0.30;;;5.60;98.70;;;;;;5034403;28;20249;-73
2022/02/22 05:12:57;;;;;;;0.30;0.30;;;5.60;98.70;;;;;;5033991;28;20182;-75
2022/02/22 05:15:23;;;;;;;0.40;0.40;;;5.60;98.70;;;;;;5016773;28;20637;-72
2022/02/22 05:17:48;;;;;;;0.30;0.30;;;5.50;98.70;;;;;;5034099;28;20170;-73
2022/02/22 05:20:14;;;;;;;0.30;0.30;;;5.50;98.70;;;;;;5033855;28;20173;-74
2022/02/22 05:22:44;;;;;;;0.30;0.30;;;5.50;98.60;;;;;;5034066;28;20203;-75
2022/02/22 05:25:12;;;;;;;0.40;0.40;;;5.60;98.70;;;;;;5033372;28;20659;-72
2022/02/22 05:27:37;;;;;;;0.40;0.40;;;5.60;98.70;;;;;;5033845;28;20198;-68
2022/02/22 05:30:08;;;;;;;0.30;0.30;;;5.60;98.60;;;;;;5033752;28;20547;-68
2022/02/22 05:32:34;;;;;;;0.30;0.30;;;5.60;98.60;;;;;;5015989;28;20414;-69
2022/02/22 05:35:01;;;;;;;0.30;0.30;;;5.60;98.60;;;;;;5034109;28;20194;-69
2022/02/22 05:37:29;;;;;;;0.40;0.40;;;5.50;98.50;;;;;;5033934;28;20530;-68
2022/02/22 05:39:56;;;;;;;0.40;0.40;;;5.30;99.00;;;;;;5033851;28;20197;-69
2022/02/22 05:42:22;;;;;;;0.30;0.30;;;5.40;99.20;;;;;;5034029;28;20518;-68
2022/02/22 05:44:48;;;;;;;0.40;0.40;;;5.60;99.30;;;;;;5016283;28;20206;-69
2022/02/22 05:47:14;;;;;;;0.40;0.40;;;5.60;98.90;;;;;;5034092;28;20178;-69
2022/02/22 05:49:40;;;;;;;0.40;0.40;;;5.70;98.90;;;;;;5033431;28;20517;-69
2022/02/22 05:52:06;;;;;;;0.30;0.30;;;5.70;98.70;;;;;;5033856;28;20178;-70
2022/02/22 05:54:32;;;;;;;0.33;0.33;;;5.60;98.60;;;;;;5033217;28;20171;-70
2022/02/22 05:56:57;;;;;;;0.30;0.30;;;5.50;98.80;;;;;;5033624;28;20398;-70
2022/02/22 05:59:23;;;;;;;0.40;0.40;;;5.60;98.90;;;;;;5033523;28;20539;-70
2022/02/22 06:01:49;;;;;;;0.40;0.40;;;5.50;99.00;;;;;;5032568;28;20178;-69
2022/02/22 06:04:14;;;;;;;0.37;0.37;;;5.60;99.20;;;;;;5032039;28;20167;-70
2022/02/22 06:06:41;;;;;;;0.30;0.30;;;5.50;98.80;;;;;;5032165;28;20467;-69
2022/02/22 06:09:07;;;;;;;0.32;0.32;;;5.40;98.90;;;;;;5032786;28;20167;-69
2022/02/22 06:11:33;;;;;;;0.30;0.30;;;5.30;99.30;;;;;;5033377;28;20182;-70
2022/02/22 06:13:59;;;;;;;0.30;0.30;;;5.30;99.30;;;;;;5033520;28;20221;-70
2022/02/22 06:16:25;;;;;;;0.40;0.40;;;5.50;99.20;;;;;;5033452;28;20923;-70
2022/02/22 06:18:51;;;;;;;0.40;0.40;;;5.60;99.10;;;;;;5033170;28;20253;-70
2022/02/22 06:21:17;;;;;;;0.40;0.40;;;5.60;98.80;;;;;;5033237;28;20210;-70
2022/02/22 06:23:43;;;;;;;0.40;0.40;;;5.70;98.90;;;;;;5033780;28;20405;-70
2022/02/22 06:26:08;;;;;;;0.30;0.30;;;5.60;98.80;;;;;;5037076;28;20239;-70
2022/02/22 06:28:34;;;;;;;0.30;0.30;;;5.60;98.70;;;;;;5037211;28;20174;-69
2022/02/22 06:31:00;;;;;;;0.30;0.30;;;5.70;98.80;;;;;;5036968;28;20194;-69
2022/02/22 06:33:26;;;;;;;0.40;0.40;;;5.70;98.60;;;;;;5037291;28;20167;-70
2022/02/22 06:35:52;;;;;;;0.37;0.37;;;5.80;98.60;;;;;;5036923;28;20325;-69
2022/02/22 06:38:19;;;;;;;0.30;0.30;;;5.70;98.30;;;;;;5037039;28;20867;-70
2022/02/22 06:40:45;;;;;;;0.40;0.40;;;5.70;98.30;;;;;;5019073;28;20198;-69
2022/02/22 06:43:11;;;;;;;0.35;0.35;;;5.60;98.40;;;;;;5036661;28;20245;-69
2022/02/22 06:45:37;;;;;;;0.30;0.30;;;5.30;98.50;;;;;;5035915;28;20214;-70
2022/02/22 06:48:03;;;;;;;0.30;0.30;;;5.20;99.30;;;;;;5036866;28;20171;-69
2022/02/22 06:50:29;;;;;;;0.30;0.30;;;5.30;99.40;;;;;;5036514;28;20449;-70
2022/02/22 06:52:55;;;;;;;0.40;0.40;;;5.50;99.00;;;;;;5036744;28;20174;-69
2022/02/22 06:55:21;;;;;;;0.30;0.30;;;5.40;98.90;;;;;;5036645;28;20587;-69
2022/02/22 06:58:07;;;;;;;0.40;0.40;;;5.30;99.20;;;;;;5036142;28;20338;-69
2022/02/22 07:00:35;;;;;;;0.40;0.40;;;5.60;99.20;;;;;;5036355;28;20629;-69
2022/02/22 07:03:03;;;;;;;0.30;0.30;;;5.60;98.80;;;;;;5036043;28;20637;-69
2022/02/22 07:05:30;;;;;;;0.30;0.30;;;5.80;98.90;;;;;;5036542;28;20595;-70
2022/02/22 07:07:57;;;;;;;0.40;0.40;;;6.10;98.70;;;;;;5035797;28;20568;-69
2022/02/22 07:10:24;;;;;;;0.30;0.30;;;6.30;98.10;;;;;;5036453;28;20199;-69
2022/02/22 07:12:50;;;;;;;0.40;0.40;;;6.50;97.90;;;;;;5036571;28;20270;-69
2022/02/22 07:15:16;;;;;;;0.30;0.30;;;6.70;97.30;;;;;;5036387;28;20695;-69
2022/02/22 07:17:51;;;;;;;0.30;0.30;;;6.80;97.10;;;;;;5036324;28;20406;-70
2022/02/22 07:20:18;;;;;;;0.30;0.30;;;6.90;96.90;;;;;;5036217;28;20187;-70
2022/02/22 07:22:44;;;;;;;0.30;0.30;;;6.90;96.80;;;;;;5036419;28;20171;-71
2022/02/22 07:25:12;;;;;;;0.30;0.30;;;6.80;96.80;;;;;;5035628;28;20240;-69
2022/02/22 07:27:38;;;;;;;0.40;0.40;;;6.60;96.70;;;;;;5036167;28;20222;-69
2022/02/22 07:30:06;;;;;;;0.40;0.40;;;6.30;97.20;;;;;;5035701;28;20205;-71
2022/02/22 07:32:32;;;;;;;0.35;0.35;;;6.00;98.00;;;;;;5035139;28;20167;-71
2022/02/22 07:34:57;;;;;;;0.30;0.30;;;6.00;98.50;;;;;;5035310;28;20713;-71
2022/02/22 07:37:23;;;;;;;0.30;0.30;;;6.30;98.70;;;;;;5036025;28;20202;-71
2022/02/22 07:39:49;;;;;;;0.37;0.37;;;6.40;98.20;;;;;;5035797;28;20186;-71
2022/02/22 07:42:15;;;;;;;0.30;0.30;;;6.70;97.80;;;;;;5035735;28;20739;-69
2022/02/22 07:44:40;;;;;;;0.40;0.40;;;6.80;97.30;;;;;;5035878;28;20198;-70
2022/02/22 07:47:06;;;;;;;0.40;0.40;;;7.00;97.30;;;;;;5036141;28;20481;-70
2022/02/22 07:49:32;;;;;;;0.40;0.40;;;7.00;97.40;;;;;;5035554;28;20460;-70
2022/02/22 07:51:58;;;;;;;0.30;0.30;;;6.90;96.90;;;;;;5035977;28;20179;-70
2022/02/22 07:54:24;;;;;;;0.30;0.30;;;6.90;97.10;;;;;;5035665;28;20254;-70
2022/02/22 07:56:50;;;;;;;0.30;0.30;;;6.80;97.30;;;;;;5035571;28;20266;-70
2022/02/22 07:59:16;;;;;;;0.40;0.40;;;6.90;97.20;;;;;;5035318;28;20398;-70
2022/02/22 08:01:41;;;;;;;0.30;0.30;;;7.00;97.20;;;;;;5035528;28;20401;-70
2022/02/22 08:04:07;;;;;;;0.30;0.30;;;7.20;97.00;;;;;;5035938;28;20632;-70
2022/02/22 08:06:33;;;;;;;0.30;0.30;;;7.10;96.30;;;;;;5036000;28;20202;-70
2022/02/22 08:08:58;;;;;;;0.40;0.40;;;6.90;96.70;;;;;;5034967;28;20167;-70
2022/02/22 08:11:29;;;;;;;0.40;0.40;;;7.10;97.10;;;;;;5035191;28;20260;-70
2022/02/22 08:13:55;;;;;;;0.30;0.30;;;7.10;96.70;;;;;;5034874;28;20184;-69
2022/02/22 08:16:21;;;;;;;1.55;1.52;;;7.00;96.60;;;;;;5035607;28;20544;-69
2022/02/22 08:18:47;;;;;;;0.30;0.30;;;7.00;96.60;;;;;;5035396;28;20167;-69
2022/02/22 08:21:13;;;;;;;0.37;0.37;;;6.70;96.40;;;;;;5035777;28;20946;-70
2022/02/22 08:23:39;;;;;;;0.40;0.40;;;6.60;97.20;;;;;;5034547;28;20918;-70
2022/02/22 08:26:05;;;;;;;0.40;0.40;;;6.70;97.40;;;;;;5033261;28;20239;-70
2022/02/22 08:28:31;;;;;;;0.30;0.30;;;6.40;97.00;;;;;;5033804;28;20175;-68
2022/02/22 08:30:57;;;;;;;0.30;0.30;;;6.30;97.70;;;;;;5034396;28;20230;-70
2022/02/22 08:33:23;;;;;;;0.38;0.38;;;6.30;97.80;;;;;;5035269;28;20393;-70
2022/02/22 08:35:49;;;;;;;0.30;0.30;;;6.40;97.80;;;;;;5035311;28;20194;-70
2022/02/22 08:38:15;;;;;;;0.30;0.30;;;6.30;97.80;;;;;;5034791;28;20663;-70
2022/02/22 08:40:41;;;;;;;0.70;0.70;;;6.30;97.90;;;;;;5034593;28;20907;-70
2022/02/22 08:43:06;;;;;;;0.33;0.33;;;6.10;98.20;;;;;;5017243;28;20456;-70
2022/02/22 08:45:32;;;;;;;0.40;0.40;;;6.20;98.30;;;;;;5034712;28;20191;-70
2022/02/22 08:47:58;;;;;;;0.30;0.30;;;6.30;98.40;;;;;;5033776;28;20519;-70
2022/02/22 08:50:25;;;;;;;0.37;0.37;;;6.10;98.40;;;;;;5034241;28;20194;-70
2022/02/22 08:52:52;;;;;;;0.60;0.60;;;6.10;98.60;;;;;;5034618;28;20167;-70
2022/02/22 08:55:18;;;;;;;0.30;0.30;;;6.40;98.70;;;;;;5034630;28;20199;-70
2022/02/22 08:57:44;;;;;;;0.40;0.40;;;6.40;98.30;;;;;;5034693;28;20163;-69
2022/02/22 09:00:10;;;;;;;0.30;0.30;;;6.30;98.40;;;;;;5034696;28;20191;-70
2022/02/22 09:02:40;;;;;;;0.30;0.30;;;6.30;98.30;;;;;;5034798;28;20500;-70
2022/02/22 09:05:08;;;;;;;0.40;0.40;;;6.20;98.50;;;;;;5034312;28;20269;-70
2022/02/22 09:07:34;;;;;;;0.30;0.30;;;6.30;98.60;;;;;;5034394;28;20221;-70
2022/02/22 09:09:59;;;;;;;0.40;0.40;;;6.10;98.70;;;;;;5034351;28;20213;-69
2022/02/22 09:12:27;;;;;;;0.30;0.30;;;5.80;99.00;;;;;;5034479;28;20171;-70
2022/02/22 09:14:53;;;;;;;0.32;0.32;;;5.80;99.70;;;;;;5034494;28;20187;-69
2022/02/22 09:17:19;;;;;;;0.38;0.38;;;5.90;99.80;;;;;;5034669;28;20222;-70
2022/02/22 09:19:45;;;;;;;0.40;0.40;;;5.70;99.60;;;;;;5033550;28;20572;-74
2022/02/22 09:22:11;;;;;;;0.37;0.37;;;5.60;99.80;;;;;;5034035;28;20172;-69
2022/02/22 09:24:38;;;;;;;0.30;0.30;;;5.80;99.80;;;;;;5033170;28;20175;-70
2022/02/22 09:27:04;;;;;;;0.40;0.40;;;5.60;99.70;;;;;;5033679;28;20191;-72
2022/02/22 09:29:30;;;;;;;0.40;0.40;;;5.60;99.90;;;;;;5015324;28;20281;-73
2022/02/22 09:31:57;;;;;;;0.30;0.30;;;5.70;99.90;;;;;;5015409;28;20958;-72
2022/02/22 09:34:23;;;;;;;0.35;0.35;;;5.70;99.90;;;;;;5033950;28;20250;-75
2022/02/22 09:36:49;;;;;;;0.30;0.30;;;5.70;99.90;;;;;;5033919;28;20262;-72
2022/02/22 09:39:15;;;;;;;0.30;0.30;;;5.60;99.90;;;;;;5033086;28;20250;-72
2022/02/22 09:41:40;;;;;;;0.30;0.30;;;5.70;99.90;;;;;;5033122;28;20206;-75
2022/02/22 09:44:06;;;;;;;0.40;0.40;;;5.70;99.90;;;;;;5032170;28;20202;-72
2022/02/22 09:46:32;;;;;;;0.40;0.40;;;6.10;99.90;;;;;;5032417;28;20970;-71
2022/02/22 09:48:58;;;;;;;0.40;0.40;;;6.20;99.20;;;;;;5032817;28;20233;-72
2022/02/22 09:51:25;;;;;;;0.40;0.40;;;6.40;99.10;;;;;;5033532;28;20293;-70
2022/02/22 09:53:51;;;;;;;0.30;0.30;;;6.70;98.40;;;;;;5033752;28;20168;-70
2022/02/22 09:56:23;;;;;;;0.40;0.40;;;7.00;97.90;;;;;;5033816;28;20662;-70
2022/02/22 09:58:49;;;;;;;0.32;0.32;;;7.20;97.20;;;;;;5033451;28;20177;-71
2022/02/22 10:01:15;;;;;;;0.38;0.38;;;7.20;96.90;;;;;;5032791;28;20186;-71
2022/02/22 10:03:42;;;;;;;0.30;0.30;;;7.20;96.60;;;;;;5033055;28;20176;-70
2022/02/22 10:06:09;;;;;;;0.40;0.40;;;6.90;97.30;;;;;;5033322;28;20566;-70
2022/02/22 10:08:35;;;;;;;0.35;0.35;;;7.00;97.20;;;;;;5032606;28;20172;-70
2022/02/22 10:11:05;;;;;;;0.30;0.30;;;7.00;96.50;;;;;;5033203;28;20703;-73
2022/02/22 10:13:32;;;;;;;0.30;0.30;;;7.00;96.30;;;;;;5014910;28;20715;-73
2022/02/22 10:15:58;;;;;;;0.30;0.30;;;6.70;96.70;;;;;;5033310;28;20280;-72
2022/02/22 10:18:26;;;;;;;0.30;0.30;;;6.70;96.90;;;;;;5033284;28;20164;-71
2022/02/22 10:20:52;;;;;;;0.30;0.30;;;6.90;97.30;;;;;;5015931;28;20210;-75
2022/02/22 10:23:29;;;;;;;0.30;0.30;;;7.10;96.90;;;;;;5033864;28;20179;-71
2022/02/22 10:25:56;;;;;;;0.30;0.30;;;7.50;96.50;;;;;;5033126;28;20208;-74
2022/02/22 10:28:22;;;;;;;0.40;0.40;;;8.00;95.70;;;;;;5032982;28;20177;-77
2022/02/22 10:30:50;;;;;;;0.30;0.30;;;8.00;94.80;;;;;;5033712;28;20256;-73
2022/02/22 10:33:25;;;;;;;0.40;0.40;;;8.20;94.30;;;;;;5033510;28;20173;-71
2022/02/22 10:35:54;;;;;;;0.40;0.40;;;8.30;93.90;;;;;;5033480;28;20221;-74
2022/02/22 10:38:20;;;;;;;0.40;0.40;;;8.30;94.10;;;;;;5033422;28;20572;-73
2022/02/22 10:40:58;;;;;;;0.30;0.30;;;8.40;93.80;;;;;;5033791;28;20207;-74
2022/02/22 10:43:27;;;;;;;0.30;0.30;;;8.60;93.40;;;;;;5033210;28;20740;-73
2022/02/22 10:45:55;;;;;;;0.30;0.30;;;8.90;93.50;;;;;;5033246;28;20285;-70
2022/02/22 10:48:32;;;;;;;0.30;0.30;;;8.90;92.50;;;;;;5033195;28;20177;-70
2022/02/22 10:51:00;;;;;;;0.30;0.30;;;8.40;92.40;;;;;;5033507;28;20753;-70
2022/02/22 10:53:35;;;;;;;0.40;0.40;;;8.50;93.10;;;;;;5033568;28;20512;-70
2022/02/22 10:56:03;;;;;;;0.38;0.38;;;8.70;92.40;;;;;;5032463;28;20193;-70
2022/02/22 10:58:30;;;;;;;0.40;0.40;;;8.40;92.40;;;;;;5015277;28;20671;-70
2022/02/22 11:00:57;;;;;;;0.30;0.30;;;8.50;93.20;;;;;;5032397;28;20671;-70
2022/02/22 11:03:22;;;;;;;0.30;0.30;;;8.60;92.00;;;;;;5033273;28;20184;-70
2022/02/22 11:05:49;;;;;;;1.33;1.23;;;8.80;92.40;;;;;;5032766;28;20201;-70
2022/02/22 11:08:23;;;;;;;0.40;0.40;;;9.10;91.80;;;;;;5030854;28;20174;-70
2022/02/22 11:10:53;;;;;;;0.30;0.30;;;9.70;91.10;;;;;;5034808;28;20208;-70
2022/02/22 11:13:25;;;;;;;0.30;0.30;;;10.60;88.80;;;;;;5036725;28;20555;-70
2022/02/22 11:15:51;;;;;;;0.30;0.30;;;10.90;86.00;;;;;;5036321;28;20195;-70
2022/02/22 11:18:21;;;;;;;0.30;0.30;;;11.10;86.50;;;;;;5036200;28;20194;-71
2022/02/22 11:20:47;;;;;;;0.30;0.30;;;11.10;85.70;;;;;;5036489;28;20220;-70
2022/02/22 11:23:25;;;;;;;0.30;0.30;;;10.90;86.60;;;;;;5036222;28;20171;-70
2022/02/22 11:26:10;;;;;;;0.30;0.30;;;10.50;85.10;;;;;;5036204;28;20202;-70
2022/02/22 11:28:39;;;;;;;0.30;0.30;;;10.10;86.30;;;;;;5035940;28;20538;-70
2022/02/22 11:31:11;;;;;;;0.32;0.32;;;9.80;88.30;;;;;;5018342;28;20198;-70
2022/02/22 11:33:50;;;;;;;0.40;0.40;;;9.80;89.70;;;;;;5035452;28;20197;-77
2022/02/22 11:36:30;;;;;;;0.30;0.30;;;9.80;90.20;;;;;;5036224;28;20186;-71
2022/02/22 11:38:56;;;;;;;0.30;0.30;;;9.60;89.30;;;;;;5018439;28;20179;-74
2022/02/22 11:41:27;;;;;;;0.30;0.30;;;9.40;90.40;;;;;;5018809;28;20214;-74
2022/02/22 11:44:03;;;;;;;0.30;0.30;;;9.70;90.60;;;;;;5036080;28;20202;-74
2022/02/22 11:46:38;;;;;;;0.30;0.30;;;9.80;90.30;;;;;;5035669;28;20205;-76
2022/02/22 11:49:05;;;;;;;0.30;0.30;;;9.90;90.20;;;;;;5035911;28;20179;-70
2022/02/22 11:51:47;;;;;;;0.30;0.30;;;10.20;88.10;;;;;;5035806;28;20564;-71
2022/02/22 11:54:23;;;;;;;0.30;0.30;;;10.40;87.40;;;;;;5035292;28;20213;-70
2022/02/22 11:57:03;;;;;;;0.30;0.30;;;10.40;87.70;;;;;;5035609;28;20318;-71
2022/02/22 11:59:33;;;;;;;0.30;0.30;;;10.40;86.80;;;;;;5035409;28;20170;-70
2022/02/22 12:02:00;;;;;;;0.30;0.30;;;10.10;87.00;;;;;;5035737;28;20194;-71
2022/02/22 12:04:31;;;;;;;0.30;0.30;;;10.00;88.20;;;;;;5035577;28;20715;-70
2022/02/22 12:06:58;;;;;;;0.30;0.30;;;9.90;90.10;;;;;;5035376;28;20185;-71
2022/02/22 12:09:37;;;;;;;0.60;0.60;;;9.90;90.10;;;;;;5035267;28;20169;-70
2022/02/22 12:12:08;;;;;;;0.40;0.40;;;10.10;88.60;;;;;;5035658;28;20526;-70
2022/02/22 12:14:35;;;;;;;0.30;0.30;;;10.10;87.90;;;;;;5035337;28;20202;-71
2022/02/22 12:17:05;;;;;;;0.40;0.40;;;10.10;87.40;;;;;;5035190;28;20163;-71
2022/02/22 12:19:31;;;;;;;0.30;0.30;;;9.80;88.50;;;;;;5035160;28;20175;-70
2022/02/22 12:21:56;;;;;;;0.40;0.40;;;9.70;89.70;;;;;;5035080;28;20171;-70
2022/02/22 12:24:24;;;;;;;0.30;0.30;;;9.30;90.30;;;;;;5035301;28;20236;-70
2022/02/22 12:26:51;;;;;;;0.30;0.30;;;9.30;90.80;;;;;;5034928;28;20273;-70
2022/02/22 12:29:17;;;;;;;0.30;0.30;;;9.50;90.70;;;;;;5034830;28;20224;-70
2022/02/22 12:31:51;;;;;;;0.30;0.30;;;9.60;90.10;;;;;;5035062;28;20259;-70
2022/02/22 12:34:18;;;;;;;0.30;0.30;;;9.80;90.50;;;;;;5035105;28;20183;-71
2022/02/22 12:36:46;;;;;;;0.40;0.40;;;9.70;89.20;;;;;;5034711;28;20190;-71
2022/02/22 12:39:17;;;;;;;0.30;0.30;;;9.80;89.70;;;;;;5034722;28;20214;-71
2022/02/22 12:41:46;;;;;;;0.32;0.32;;;10.00;88.60;;;;;;5034778;28;20175;-71
2022/02/22 12:44:15;;;;;;;0.30;0.30;;;10.20;88.30;;;;;;5034685;28;20171;-70
2022/02/22 12:46:42;;;;;;;0.30;0.30;;;10.10;87.70;;;;;;5034541;28;20210;-71
2022/02/22 12:49:10;;;;;;;0.30;0.30;;;10.30;86.50;;;;;;5034460;28;20193;-71
2022/02/22 12:51:36;;;;;;;0.30;0.30;;;10.00;86.40;;;;;;5034693;28;20538;-70
2022/02/22 12:54:20;;;;;;;0.40;0.40;;;9.80;88.80;;;;;;5034657;28;20357;-70